createdAt,value
2019-04-11T00:00:31.287Z,4.57
2019-04-11T00:03:00.836Z,5.00
2019-04-11T00:05:30.628Z,4.23
2019-04-11T00:08:00.059Z,4.47
2019-04-11T00:10:29.229Z,5.33
2019-04-11T00:12:59.083Z,4.63
2019-04-11T00:15:28.795Z,5.63
2019-04-11T00:17:58.591Z,4.67
2019-04-11T00:20:28.327Z,4.53
2019-04-11T00:22:57.660Z,4.50
2019-04-11T00:25:27.392Z,5.43
2019-04-11T00:27:57.241Z,4.80
2019-04-11T00:30:26.201Z,5.33
2019-04-11T00:32:55.982Z,6.27
2019-04-11T00:35:25.802Z,4.97
2019-04-11T00:37:54.769Z,5.87
2019-04-11T00:40:23.358Z,5.67
2019-04-11T00:42:52.645Z,5.40
2019-04-11T00:45:21.515Z,4.97
2019-04-11T00:47:50.188Z,5.33
2019-04-11T00:50:19.097Z,5.93
2019-04-11T00:52:47.793Z,4.60
2019-04-11T00:55:17.505Z,5.20
2019-04-11T00:57:47.175Z,5.00
2019-04-11T01:00:16.578Z,4.37
2019-04-11T01:02:45.448Z,4.60
2019-04-11T01:05:15.156Z,4.80
2019-04-11T01:07:43.932Z,5.63
2019-04-11T01:10:13.946Z,4.80
2019-04-11T01:12:42.978Z,4.80
2019-04-11T01:15:15.369Z,4.80
2019-04-11T01:17:44.094Z,5.77
2019-04-11T01:20:13.289Z,5.50
2019-04-11T01:22:42.461Z,5.10
2019-04-11T01:25:13.224Z,5.77
2019-04-11T01:27:42.535Z,4.70
2019-04-11T01:30:13.771Z,5.03
2019-04-11T01:32:42.398Z,4.57
2019-04-11T01:35:11.025Z,5.03
2019-04-11T01:37:41.871Z,5.53
2019-04-11T01:40:11.716Z,4.80
2019-04-11T01:42:41.627Z,4.40
2019-04-11T01:45:11.489Z,4.67
2019-04-11T01:47:47.961Z,5.30
2019-04-11T01:50:18.931Z,4.57
2019-04-11T01:52:48.678Z,5.20
2019-04-11T01:55:18.485Z,4.67
2019-04-11T01:57:47.295Z,4.63
2019-04-11T02:00:34.453Z,4.73
2019-04-11T02:03:05.117Z,4.80
2019-04-11T02:05:35.014Z,4.77
2019-04-11T02:08:03.986Z,4.60
2019-04-11T02:10:33.222Z,5.50
2019-04-11T02:13:01.859Z,4.10
2019-04-11T02:15:30.514Z,4.50
2019-04-11T02:17:59.343Z,3.67
2019-04-11T02:20:29.075Z,4.70
2019-04-11T02:23:02.525Z,4.70
2019-04-11T02:25:32.953Z,4.40
2019-04-11T02:28:04.328Z,3.87
2019-04-11T02:30:36.187Z,4.63
2019-04-11T02:33:04.902Z,3.80
2019-04-11T02:35:35.380Z,4.57
2019-04-11T02:38:04.943Z,5.73
2019-04-11T02:40:34.048Z,4.43
2019-04-11T02:43:04.897Z,3.93
2019-04-11T02:45:45.247Z,4.77
2019-04-11T02:48:05.852Z,4.30
2019-04-11T02:50:37.126Z,4.30
2019-04-11T02:53:07.102Z,4.73
2019-04-11T02:55:37.693Z,3.93
2019-04-11T02:58:07.808Z,3.47
2019-04-11T03:00:37.623Z,4.70
2019-04-11T03:03:08.447Z,4.40
2019-04-11T03:05:39.194Z,4.13
2019-04-11T03:08:11.361Z,4.03
2019-04-11T03:10:37.927Z,4.30
2019-04-11T03:13:08.267Z,4.03
2019-04-11T03:15:48.874Z,4.33
2019-04-11T03:18:09.448Z,3.70
2019-04-11T03:20:47.324Z,4.70
2019-04-11T03:23:12.382Z,3.63
2019-04-11T03:25:40.630Z,3.87
2019-04-11T03:28:13.634Z,3.03
2019-04-11T03:30:59.207Z,3.73
2019-04-11T03:34:06.266Z,3.73
2019-04-11T03:38:38.473Z,3.90
2019-04-11T03:40:57.812Z,3.70
2019-04-11T03:43:28.161Z,3.93
2019-04-11T03:46:05.130Z,3.40
2019-04-11T03:48:29.206Z,3.40
2019-04-11T03:50:45.194Z,3.80
2019-04-11T03:53:14.660Z,4.47
2019-04-11T03:55:43.576Z,4.80
2019-04-11T03:58:13.225Z,3.80
2019-04-11T04:00:44.413Z,4.03
2019-04-11T04:03:14.165Z,3.77
2019-04-11T04:05:44.381Z,4.30
2019-04-11T04:08:13.646Z,4.80
2019-04-11T04:11:00.681Z,3.50
2019-04-11T04:13:31.679Z,4.80
2019-04-11T04:16:16.616Z,3.90
2019-04-11T04:18:38.073Z,4.00
2019-04-11T04:21:26.467Z,4.40
2019-04-11T04:23:57.866Z,4.93
2019-04-11T04:26:26.948Z,3.60
2019-04-11T04:28:55.674Z,4.60
2019-04-11T04:31:24.495Z,4.30
2019-04-11T04:33:53.500Z,4.43
2019-04-11T04:36:24.614Z,4.13
2019-04-11T04:38:54.460Z,4.43
2019-04-11T04:41:36.679Z,4.20
2019-04-11T04:43:57.562Z,4.57
2019-04-11T04:46:45.335Z,4.77
2019-04-11T04:48:56.364Z,5.17
2019-04-11T04:51:26.649Z,4.80
2019-04-11T04:53:55.767Z,4.07
2019-04-11T04:56:29.510Z,4.70
2019-04-11T04:58:55.970Z,4.20
2019-04-11T05:01:26.459Z,4.30
2019-04-11T05:03:56.371Z,4.70
2019-04-11T05:06:26.204Z,4.33
2019-04-11T05:08:56.080Z,4.83
2019-04-11T05:11:26.253Z,4.47
2019-04-11T05:13:56.638Z,4.17
2019-04-11T05:16:25.561Z,4.07
2019-04-11T05:18:54.749Z,4.20
2019-04-11T05:21:23.605Z,3.70
2019-04-11T05:23:52.226Z,4.17
2019-04-11T05:26:21.575Z,4.27
2019-04-11T05:28:51.033Z,4.73
2019-04-11T05:31:20.639Z,5.47
2019-04-11T05:33:49.716Z,4.30
2019-04-11T05:36:18.706Z,5.10
2019-04-11T05:38:48.539Z,4.97
2019-04-11T05:41:18.243Z,5.10
2019-04-11T05:43:47.569Z,4.93
2019-04-11T05:46:30.192Z,4.40
2019-04-11T05:48:48.083Z,5.10
2019-04-11T05:51:21.211Z,4.40
2019-04-11T05:53:49.914Z,4.37
2019-04-11T05:56:20.279Z,4.73
2019-04-11T05:58:51.470Z,3.90
2019-04-11T06:01:31.228Z,4.90
2019-04-11T06:04:02.000Z,4.80
2019-04-11T06:06:39.461Z,5.30
2019-04-11T06:09:10.365Z,4.60
2019-04-11T06:11:52.362Z,5.73
2019-04-11T06:14:25.024Z,5.00
2019-04-11T06:16:57.365Z,5.53
2019-04-11T06:19:43.775Z,5.37
2019-04-11T06:22:12.807Z,4.30
2019-04-11T06:24:50.112Z,4.17
2019-04-11T06:27:26.237Z,4.33
2019-04-11T06:29:57.291Z,5.47
2019-04-11T06:32:28.265Z,4.60
2019-04-11T06:34:59.657Z,4.70
2019-04-11T06:37:46.182Z,4.90
2019-04-11T06:40:34.761Z,4.57
2019-04-11T06:43:05.039Z,4.40
2019-04-11T06:45:52.422Z,4.33
2019-04-11T06:48:29.561Z,4.80
2019-04-11T06:50:59.936Z,4.90
2019-04-11T06:53:30.193Z,4.20
2019-04-11T06:56:04.415Z,4.83
2019-04-11T06:58:35.150Z,4.10
2019-04-11T07:01:05.540Z,4.17
2019-04-11T07:03:36.296Z,4.90
2019-04-11T07:06:07.007Z,4.07
2019-04-11T07:08:56.587Z,4.73
2019-04-11T07:11:42.670Z,11.17
2019-04-11T07:14:13.038Z,4.23
2019-04-11T07:17:04.431Z,4.00
2019-04-11T07:19:35.127Z,3.83
2019-04-11T07:22:05.432Z,3.70
2019-04-11T07:24:41.224Z,3.50
2019-04-11T07:27:11.669Z,3.60
2019-04-11T07:29:42.173Z,3.27
2019-04-11T07:32:13.577Z,3.70
2019-04-11T07:34:49.887Z,4.17
2019-04-11T07:37:34.546Z,4.80
2019-04-11T07:40:15.599Z,4.50
2019-04-11T07:42:49.626Z,3.97
2019-04-11T07:45:23.824Z,3.73
2019-04-11T07:47:54.857Z,3.00
2019-04-11T07:50:24.951Z,3.13
2019-04-11T07:52:56.112Z,3.60
2019-04-11T07:55:25.845Z,3.03
2019-04-11T07:57:59.136Z,3.87
2019-04-11T08:00:48.005Z,3.50
2019-04-11T08:03:32.913Z,3.87
2019-04-11T08:06:09.047Z,3.40
2019-04-11T08:08:39.281Z,3.50
2019-04-11T08:11:09.598Z,3.63
2019-04-11T08:13:47.092Z,2.90
2019-04-11T08:16:23.600Z,3.03
2019-04-11T08:19:13.098Z,3.13
2019-04-11T08:21:56.640Z,3.50
2019-04-11T08:24:30.041Z,3.50
2019-04-11T08:27:17.636Z,4.03
2019-04-11T08:29:48.871Z,3.37
2019-04-11T08:32:36.027Z,4.00
2019-04-11T08:35:12.692Z,3.50
2019-04-11T08:37:43.443Z,3.17
2019-04-11T08:40:13.809Z,5.50
2019-04-11T08:43:00.238Z,3.53
2019-04-11T08:45:30.485Z,3.33
2019-04-11T08:48:00.718Z,3.80
2019-04-11T08:50:30.937Z,2.63
2019-04-11T08:53:04.555Z,2.43
2019-04-11T08:55:45.556Z,2.10
2019-04-11T08:58:06.914Z,2.70
2019-04-11T09:00:46.377Z,1.97
2019-04-11T09:03:35.112Z,1.90
2019-04-11T09:06:08.545Z,1.60
2019-04-11T09:08:54.412Z,1.33
2019-04-11T09:11:27.157Z,1.30
2019-04-11T09:14:15.766Z,1.30
2019-04-11T09:16:56.139Z,1.20
2019-04-11T09:19:35.781Z,1.40
2019-04-11T09:22:13.065Z,1.40
2019-04-11T09:24:43.379Z,1.60
2019-04-11T09:27:31.192Z,1.97
2019-04-11T09:30:15.916Z,1.47
2019-04-11T09:32:47.099Z,1.40
2019-04-11T09:35:20.048Z,1.60
2019-04-11T09:37:49.633Z,1.63
2019-04-11T09:40:19.961Z,1.90
2019-04-11T09:42:51.236Z,1.80
2019-04-11T09:45:40.164Z,1.70
2019-04-11T09:48:14.818Z,1.93
2019-04-11T09:51:00.873Z,1.23
2019-04-11T09:53:30.336Z,1.40
2019-04-11T09:56:00.596Z,2.03
2019-04-11T09:58:30.151Z,1.10
2019-04-11T10:01:18.769Z,1.43
2019-04-11T10:03:48.685Z,1.30
2019-04-11T10:06:21.756Z,1.50
2019-04-11T10:08:57.694Z,1.30
2019-04-11T10:11:28.227Z,1.57
2019-04-11T10:14:01.727Z,1.43
2019-04-11T10:16:48.702Z,1.50
2019-04-11T10:19:20.027Z,1.60
2019-04-11T10:22:05.204Z,1.50
2019-04-11T10:24:51.648Z,2.20
2019-04-11T10:27:30.911Z,1.53
2019-04-11T10:30:10.979Z,1.30
2019-04-11T10:32:57.349Z,2.00
2019-04-11T10:35:44.329Z,1.90
2019-04-11T10:38:14.711Z,1.60
2019-04-11T10:40:48.230Z,2.13
2019-04-11T10:43:18.560Z,1.87
2019-04-11T10:45:58.713Z,1.80
2019-04-11T10:48:37.720Z,1.50
2019-04-11T10:51:09.063Z,1.47
2019-04-11T10:53:39.241Z,1.33
2019-04-11T10:56:12.121Z,1.50
2019-04-11T10:58:49.092Z,1.30
2019-04-11T11:01:35.931Z,1.50
2019-04-11T11:04:15.915Z,1.20
2019-04-11T11:06:46.562Z,1.80
2019-04-11T11:09:17.684Z,1.50
2019-04-11T11:11:48.464Z,1.53
2019-04-11T11:14:18.867Z,1.20
2019-04-11T11:16:58.837Z,2.40
2019-04-11T11:19:57.447Z,1.33
2019-04-11T11:22:23.799Z,1.30
2019-04-11T11:24:58.047Z,1.50
2019-04-11T11:27:27.371Z,1.77
2019-04-11T11:30:10.702Z,1.07
2019-04-11T11:32:39.461Z,1.60
2019-04-11T11:35:10.727Z,1.30
2019-04-11T11:37:47.484Z,1.40
2019-04-11T11:40:38.457Z,1.23
2019-04-11T11:43:08.738Z,1.20
2019-04-11T11:45:46.855Z,1.47
2019-04-11T11:48:18.513Z,1.63
2019-04-11T11:50:49.034Z,1.50
2019-04-11T11:53:25.845Z,1.93
2019-04-11T11:55:54.064Z,2.30
2019-04-11T11:58:24.283Z,2.30
2019-04-11T12:00:56.914Z,2.80
2019-04-11T12:03:30.992Z,3.37
2019-04-11T12:06:07.336Z,3.43
2019-04-11T12:08:52.457Z,3.30
2019-04-11T12:11:22.018Z,3.30
2019-04-11T12:14:09.495Z,3.37
2019-04-11T12:16:54.809Z,3.33
2019-04-11T12:19:24.681Z,3.73
2019-04-11T12:21:55.890Z,3.00
2019-04-11T12:24:38.709Z,3.60
2019-04-11T12:27:14.698Z,3.17
2019-04-11T12:30:05.888Z,3.03
2019-04-11T12:32:38.904Z,3.17
2019-04-11T12:35:09.274Z,2.90
2019-04-11T12:37:51.800Z,3.00
2019-04-11T12:40:37.112Z,3.53
2019-04-11T12:43:07.316Z,3.87
2019-04-11T12:45:54.573Z,3.50
2019-04-11T12:48:24.814Z,4.20
2019-04-11T12:51:01.217Z,4.07
2019-04-11T12:53:29.792Z,3.30
2019-04-11T12:56:08.864Z,3.20
2019-04-11T12:58:41.829Z,3.07
2019-04-11T13:01:18.662Z,2.67
2019-04-11T13:03:51.852Z,3.00
2019-04-11T13:06:35.640Z,2.00
2019-04-11T13:09:18.132Z,1.80
2019-04-11T13:11:57.413Z,1.70
2019-04-11T13:14:44.115Z,1.30
2019-04-11T13:17:14.433Z,1.90
2019-04-11T13:20:04.706Z,2.00
2019-04-11T13:22:28.838Z,1.27
2019-04-11T13:24:59.061Z,1.97
2019-04-11T13:27:28.995Z,2.17
2019-04-11T13:30:05.245Z,1.60
2019-04-11T13:32:44.501Z,1.50
2019-04-11T13:35:17.721Z,2.27
2019-04-11T13:37:57.063Z,1.60
2019-04-11T13:40:45.705Z,1.57
2019-04-11T13:43:33.143Z,1.70
2019-04-11T13:46:09.349Z,2.00
2019-04-11T13:48:48.460Z,1.60
2019-04-11T13:51:27.921Z,2.67
2019-04-11T13:54:14.744Z,2.10
2019-04-11T13:57:00.915Z,1.80
2019-04-11T13:59:34.130Z,2.67
2019-04-11T14:02:17.639Z,2.17
2019-04-11T14:04:50.694Z,2.07
2019-04-11T14:07:27.172Z,2.07
2019-04-11T14:09:56.414Z,2.50
2019-04-11T14:12:26.272Z,2.37
2019-04-11T14:14:56.199Z,2.50
2019-04-11T14:17:41.613Z,3.10
2019-04-11T14:20:29.024Z,2.90
2019-04-11T14:23:04.495Z,2.77
2019-04-11T14:25:37.939Z,2.93
2019-04-11T14:28:08.327Z,1.80
2019-04-11T14:30:42.224Z,2.07
2019-04-11T14:33:10.808Z,2.93
2019-04-11T14:35:53.198Z,1.90
2019-04-11T14:38:25.952Z,2.00
2019-04-11T14:41:14.480Z,1.97
2019-04-11T14:43:45.874Z,2.00
2019-04-11T14:46:25.521Z,2.47
2019-04-11T14:48:55.954Z,2.60
2019-04-11T14:51:34.956Z,2.50
2019-04-11T14:54:05.232Z,2.47
2019-04-11T14:56:47.641Z,2.40
2019-04-11T14:59:24.757Z,2.40
2019-04-11T15:02:07.656Z,2.00
2019-04-11T15:04:54.585Z,2.00
2019-04-11T15:07:23.164Z,3.30
2019-04-11T15:10:05.161Z,3.30
2019-04-11T15:12:40.217Z,11.97
2019-04-11T15:15:27.047Z,2.97
2019-04-11T15:17:57.299Z,4.00
2019-04-11T15:20:36.428Z,5.80
2019-04-11T15:23:07.515Z,3.57
2019-04-11T15:25:40.992Z,16.30
2019-04-11T15:28:26.615Z,6.80
2019-04-11T15:30:56.823Z,2.50
2019-04-11T15:33:44.697Z,5.27
2019-04-11T15:36:20.929Z,8.00
2019-04-11T15:38:51.304Z,3.33
2019-04-11T15:41:19.866Z,4.37
2019-04-11T15:43:50.064Z,4.53
2019-04-11T15:46:20.280Z,2.80
2019-04-11T15:49:06.894Z,4.30
2019-04-11T15:51:36.635Z,2.90
2019-04-11T15:54:16.382Z,2.90
2019-04-11T15:56:58.613Z,3.77
2019-04-11T15:59:38.133Z,3.90
2019-04-11T16:02:14.711Z,2.40
2019-04-11T16:04:47.970Z,2.70
2019-04-11T16:07:37.378Z,3.23
2019-04-11T16:10:11.677Z,2.93
2019-04-11T16:12:42.900Z,3.10
2019-04-11T16:15:13.124Z,3.80
2019-04-11T16:18:00.060Z,3.07
2019-04-11T16:20:28.623Z,3.37
2019-04-11T16:22:58.823Z,1.83
2019-04-11T16:25:29.254Z,2.47
2019-04-11T16:28:15.284Z,1.83
2019-04-11T16:30:45.532Z,2.10
2019-04-11T16:33:33.467Z,2.10
2019-04-11T16:36:15.976Z,1.67
2019-04-11T16:38:52.040Z,2.20
2019-04-11T16:41:39.399Z,2.57
2019-04-11T16:44:27.890Z,1.97
2019-04-11T16:47:03.816Z,2.40
2019-04-11T16:49:32.375Z,2.60
2019-04-11T16:52:00.945Z,2.70
2019-04-11T16:54:29.524Z,2.00
2019-04-11T16:56:58.121Z,2.90
2019-04-11T16:59:26.863Z,2.67
2019-04-11T17:01:55.419Z,1.93
2019-04-11T17:04:26.075Z,1.43
2019-04-11T17:07:12.485Z,1.33
2019-04-11T17:09:42.722Z,1.60
2019-04-11T17:12:11.344Z,1.80
2019-04-11T17:14:39.952Z,1.70
2019-04-11T17:17:14.863Z,2.10
2019-04-11T17:19:38.792Z,1.40
2019-04-11T17:22:08.267Z,2.13
2019-04-11T17:24:37.013Z,2.10
2019-04-11T17:27:05.568Z,1.67
2019-04-11T17:29:34.140Z,2.00
2019-04-11T17:32:02.705Z,1.77
2019-04-11T17:34:32.367Z,3.20
2019-04-11T17:37:02.877Z,2.00
2019-04-11T17:39:32.030Z,3.10
2019-04-11T17:42:00.872Z,3.20
2019-04-11T17:44:29.447Z,3.53
2019-04-11T17:46:58.072Z,3.63
2019-04-11T17:49:26.630Z,3.80
2019-04-11T17:51:56.392Z,3.57
2019-04-11T17:54:25.572Z,3.70
2019-04-11T17:56:54.905Z,4.13
2019-04-11T17:59:28.091Z,5.30
2019-04-11T18:01:55.308Z,4.80
2019-04-11T18:04:23.875Z,6.10
2019-04-11T18:06:52.474Z,7.30
2019-04-11T18:09:25.588Z,7.03
2019-04-11T18:11:51.456Z,5.57
2019-04-11T18:14:20.108Z,6.30
2019-04-11T18:16:48.668Z,6.93
2019-04-11T18:19:17.266Z,5.60
2019-04-11T18:21:45.980Z,6.03
2019-04-11T18:24:14.539Z,6.77
2019-04-11T18:26:43.113Z,6.33
2019-04-11T18:29:12.460Z,6.80
2019-04-11T18:31:41.020Z,6.60
2019-04-11T18:34:09.581Z,5.30
2019-04-11T18:36:38.199Z,6.60
2019-04-11T18:39:07.401Z,6.80
2019-04-11T18:41:36.138Z,5.20
2019-04-11T18:44:05.163Z,4.07
2019-04-11T18:46:33.726Z,5.30
2019-04-11T18:49:02.285Z,4.73
2019-04-11T18:51:31.032Z,5.07
2019-04-11T18:53:59.648Z,5.10
2019-04-11T18:56:28.212Z,6.23
2019-04-11T18:58:56.800Z,13.67
2019-04-11T19:01:25.448Z,5.70
2019-04-11T19:03:54.135Z,7.70
2019-04-11T19:06:27.801Z,5.50
2019-04-11T19:08:53.036Z,5.10
2019-04-11T19:11:21.587Z,7.20
2019-04-11T19:13:50.177Z,4.90
2019-04-11T19:16:18.759Z,5.10
2019-04-11T19:18:48.353Z,5.93
2019-04-11T19:21:20.083Z,4.97
2019-04-11T19:23:47.620Z,5.73
2019-04-11T19:26:16.248Z,4.90
2019-04-11T19:28:44.860Z,5.10
2019-04-11T19:31:13.455Z,5.77
2019-04-11T19:33:42.009Z,4.63
2019-04-11T19:36:12.239Z,5.20
2019-04-11T19:38:43.331Z,4.73
2019-04-11T19:41:11.188Z,5.70
2019-04-11T19:43:40.910Z,5.30
2019-04-11T19:46:09.920Z,5.90
2019-04-11T19:48:38.486Z,6.17
2019-04-11T19:51:07.059Z,5.80
2019-04-11T19:53:35.626Z,5.37
2019-04-11T19:56:17.789Z,5.67
2019-04-11T19:58:46.347Z,5.23
2019-04-11T20:01:14.985Z,6.00
2019-04-11T20:03:43.708Z,6.10
2019-04-11T20:06:13.377Z,5.90
2019-04-11T20:08:42.196Z,5.40
2019-04-11T20:11:10.921Z,3.27
2019-04-11T20:13:39.489Z,5.47
2019-04-11T20:16:12.216Z,5.53
2019-04-11T20:18:49.984Z,5.03
2019-04-11T20:21:08.688Z,5.80
2019-04-11T20:23:41.516Z,5.90
2019-04-11T20:26:07.640Z,5.00
2019-04-11T20:28:37.988Z,5.20
2019-04-11T20:31:06.556Z,5.80
2019-04-11T20:33:35.283Z,5.73
2019-04-11T20:36:03.951Z,5.00
2019-04-11T20:38:32.639Z,5.70
2019-04-11T20:41:01.320Z,7.63
2019-04-11T20:43:29.867Z,6.43
2019-04-11T20:45:58.693Z,5.97
2019-04-11T20:48:27.464Z,6.10
2019-04-11T20:50:56.032Z,6.10
2019-04-11T20:53:24.580Z,5.60
2019-04-11T20:55:53.153Z,6.40
2019-04-11T20:58:27.102Z,7.10
2019-04-11T21:00:55.669Z,6.70
2019-04-11T21:03:22.345Z,7.03
2019-04-11T21:05:50.903Z,7.30
2019-04-11T21:08:19.465Z,6.03
2019-04-11T21:10:48.898Z,7.27
2019-04-11T21:13:17.456Z,7.40
2019-04-11T21:15:46.043Z,7.20
2019-04-11T21:18:14.629Z,4.93
2019-04-11T21:20:43.192Z,6.43
2019-04-11T21:23:11.870Z,5.93
2019-04-11T21:25:40.501Z,6.77
2019-04-11T21:28:09.056Z,6.43
2019-04-11T21:30:37.620Z,6.17
2019-04-11T21:33:06.332Z,5.13
2019-04-11T21:35:34.995Z,6.93
2019-04-11T21:38:03.712Z,5.83
2019-04-11T21:40:35.586Z,5.63
2019-04-11T21:43:05.885Z,5.97
2019-04-11T21:45:35.444Z,4.63
2019-04-11T21:48:05.750Z,4.67
2019-04-11T21:50:33.754Z,4.47
2019-04-11T21:53:02.324Z,5.27
2019-04-11T21:55:30.887Z,5.00
2019-04-11T21:57:59.444Z,5.30
2019-04-11T22:00:32.740Z,5.47
2019-04-11T22:03:01.330Z,4.60
2019-04-11T22:05:29.887Z,5.00
2019-04-11T22:08:00.866Z,4.10
2019-04-11T22:10:29.259Z,4.60
2019-04-11T22:12:58.284Z,4.87
2019-04-11T22:15:26.847Z,4.77
2019-04-11T22:17:56.315Z,4.70
2019-04-11T22:20:24.889Z,4.97
2019-04-11T22:22:53.454Z,4.30
2019-04-11T22:25:22.043Z,5.17
2019-04-11T22:27:51.041Z,4.13
2019-04-11T22:30:25.042Z,4.20
2019-04-11T22:32:59.059Z,5.63
2019-04-11T22:35:29.008Z,4.93
2019-04-11T22:37:59.877Z,4.97
2019-04-11T22:40:31.520Z,4.33
2019-04-11T22:42:59.080Z,4.43
2019-04-11T22:45:27.646Z,4.40
2019-04-11T22:47:56.221Z,5.30
2019-04-11T22:50:24.779Z,5.07
2019-04-11T22:52:53.330Z,3.97
2019-04-11T22:55:22.231Z,4.60
2019-04-11T22:57:50.793Z,5.03
2019-04-11T23:00:19.430Z,4.77
2019-04-11T23:02:52.406Z,4.50
2019-04-11T23:05:21.004Z,4.43
2019-04-11T23:07:49.565Z,4.40
2019-04-11T23:10:18.143Z,4.90
2019-04-11T23:12:46.705Z,3.60
2019-04-11T23:15:15.770Z,4.30
2019-04-11T23:17:44.737Z,4.10
2019-04-11T23:20:14.439Z,4.50
2019-04-11T23:22:43.721Z,5.10
2019-04-11T23:25:12.372Z,5.17
2019-04-11T23:27:40.944Z,6.07
2019-04-11T23:30:10.448Z,5.10
2019-04-11T23:32:39.120Z,4.90
2019-04-11T23:35:07.923Z,5.27
2019-04-11T23:37:51.058Z,4.53
2019-04-11T23:40:21.748Z,5.23
2019-04-11T23:42:50.883Z,5.07
2019-04-11T23:45:21.475Z,5.63
2019-04-11T23:47:53.165Z,5.57
2019-04-11T23:50:20.412Z,5.10
2019-04-11T23:52:48.987Z,4.97
2019-04-11T23:55:17.587Z,4.70
2019-04-11T23:57:46.240Z,5.70
